sensor_id;sensor_type;location;lat;lon;timestamp;P1;durP1;ratioP1;P2;durP2;ratioP2
40588;SDS011;26297;49.450;6.640;2023-03-01T00:01:04;4.45;;;3.33;;
40588;SDS011;26297;49.450;6.640;2023-03-01T00:04:19;4.30;;;3.13;;
40588;SDS011;26297;49.450;6.640;2023-03-01T00:07:25;4.75;;;3.05;;
40588;SDS011;26297;49.450;6.640;2023-03-01T00:10:29;5.00;;;3.17;;
40588;SDS011;26297;49.450;6.640;2023-03-01T00:13:34;4.20;;;3.40;;
40588;SDS011;26297;49.450;6.640;2023-03-01T00:16:39;4.82;;;3.55;;
40588;SDS011;26297;49.450;6.640;2023-03-01T00:19:44;4.97;;;3.10;;
40588;SDS011;26297;49.450;6.640;2023-03-01T00:22:49;3.38;;;3.08;;
40588;SDS011;26297;49.450;6.640;2023-03-01T00:25:53;4.78;;;3.50;;
40588;SDS011;26297;49.450;6.640;2023-03-01T00:28:58;5.35;;;3.58;;
40588;SDS011;26297;49.450;6.640;2023-03-01T00:32:28;3.95;;;3.08;;
40588;SDS011;26297;49.450;6.640;2023-03-01T00:35:38;7.00;;;3.83;;
40588;SDS011;26297;49.450;6.640;2023-03-01T00:38:46;5.22;;;2.75;;
40588;SDS011;26297;49.450;6.640;2023-03-01T00:41:50;6.90;;;3.58;;
40588;SDS011;26297;49.450;6.640;2023-03-01T00:44:59;4.75;;;3.13;;
40588;SDS011;26297;49.450;6.640;2023-03-01T00:48:10;4.28;;;2.95;;
40588;SDS011;26297;49.450;6.640;2023-03-01T00:51:19;6.25;;;3.53;;
40588;SDS011;26297;49.450;6.640;2023-03-01T00:54:25;5.28;;;3.40;;
40588;SDS011;26297;49.450;6.640;2023-03-01T00:57:35;5.55;;;3.30;;
40588;SDS011;26297;49.450;6.640;2023-03-01T01:00:49;3.78;;;3.33;;
40588;SDS011;26297;49.450;6.640;2023-03-01T03:13:01;5.47;;;4.18;;
40588;SDS011;26297;49.450;6.640;2023-03-01T03:16:11;6.82;;;4.65;;
40588;SDS011;26297;49.450;6.640;2023-03-01T03:19:53;5.57;;;4.43;;
40588;SDS011;26297;49.450;6.640;2023-03-01T03:23:19;5.85;;;4.50;;
40588;SDS011;26297;49.450;6.640;2023-03-01T03:30:39;4.00;;;3.47;;
40588;SDS011;26297;49.450;6.640;2023-03-01T03:34:39;5.18;;;4.13;;
40588;SDS011;26297;49.450;6.640;2023-03-01T03:37:43;7.80;;;4.47;;
40588;SDS011;26297;49.450;6.640;2023-03-01T03:41:07;4.82;;;4.15;;
40588;SDS011;26297;49.450;6.640;2023-03-01T03:44:17;5.85;;;4.18;;
40588;SDS011;26297;49.450;6.640;2023-03-01T03:47:40;5.97;;;4.10;;
40588;SDS011;26297;49.450;6.640;2023-03-01T03:51:29;6.93;;;4.05;;
40588;SDS011;26297;49.450;6.640;2023-03-01T03:54:44;6.13;;;4.55;;
40588;SDS011;26297;49.450;6.640;2023-03-01T03:57:51;5.78;;;4.13;;
40588;SDS011;26297;49.450;6.640;2023-03-01T04:01:08;5.30;;;4.13;;
40588;SDS011;26297;49.450;6.640;2023-03-01T04:04:52;6.43;;;4.30;;
40588;SDS011;26297;49.450;6.640;2023-03-01T04:08:12;7.03;;;4.47;;
40588;SDS011;26297;49.450;6.640;2023-03-01T04:11:27;6.10;;;4.35;;
40588;SDS011;26297;49.450;6.640;2023-03-01T04:15:01;5.70;;;4.45;;
40588;SDS011;26297;49.450;6.640;2023-03-01T04:18:23;6.00;;;4.53;;
40588;SDS011;26297;49.450;6.640;2023-03-01T04:21:38;6.60;;;4.43;;
40588;SDS011;26297;49.450;6.640;2023-03-01T04:24:55;6.45;;;4.32;;
40588;SDS011;26297;49.450;6.640;2023-03-01T04:28:34;4.85;;;4.15;;
40588;SDS011;26297;49.450;6.640;2023-03-01T04:31:56;5.50;;;4.30;;
40588;SDS011;26297;49.450;6.640;2023-03-01T04:35:16;5.55;;;4.65;;
40588;SDS011;26297;49.450;6.640;2023-03-01T04:38:24;8.05;;;4.65;;
40588;SDS011;26297;49.450;6.640;2023-03-01T04:41:32;5.55;;;4.25;;
40588;SDS011;26297;49.450;6.640;2023-03-01T04:44:51;6.20;;;4.50;;
40588;SDS011;26297;49.450;6.640;2023-03-01T04:48:05;5.93;;;3.97;;
40588;SDS011;26297;49.450;6.640;2023-03-01T04:51:26;8.07;;;4.82;;
40588;SDS011;26297;49.450;6.640;2023-03-01T04:54:37;7.07;;;4.57;;
40588;SDS011;26297;49.450;6.640;2023-03-01T04:57:49;5.78;;;4.57;;
40588;SDS011;26297;49.450;6.640;2023-03-01T05:01:00;6.65;;;3.90;;
40588;SDS011;26297;49.450;6.640;2023-03-01T05:04:05;7.60;;;4.82;;
40588;SDS011;26297;49.450;6.640;2023-03-01T05:07:11;5.47;;;4.65;;
40588;SDS011;26297;49.450;6.640;2023-03-01T05:13:44;6.25;;;4.25;;
40588;SDS011;26297;49.450;6.640;2023-03-01T05:16:48;6.38;;;4.50;;
40588;SDS011;26297;49.450;6.640;2023-03-01T05:20:17;6.55;;;4.28;;
40588;SDS011;26297;49.450;6.640;2023-03-01T05:23:33;7.53;;;4.90;;
40588;SDS011;26297;49.450;6.640;2023-03-01T05:26:57;6.63;;;4.90;;
40588;SDS011;26297;49.450;6.640;2023-03-01T05:30:02;6.32;;;4.68;;
40588;SDS011;26297;49.450;6.640;2023-03-01T05:33:19;7.97;;;4.72;;
40588;SDS011;26297;49.450;6.640;2023-03-01T05:36:45;6.10;;;4.55;;
40588;SDS011;26297;49.450;6.640;2023-03-01T05:40:13;7.63;;;5.93;;
40588;SDS011;26297;49.450;6.640;2023-03-01T05:43:31;8.35;;;6.47;;
40588;SDS011;26297;49.450;6.640;2023-03-01T05:46:48;8.43;;;6.05;;
40588;SDS011;26297;49.450;6.640;2023-03-01T05:50:19;8.70;;;6.13;;
40588;SDS011;26297;49.450;6.640;2023-03-01T05:53:42;6.60;;;5.18;;
40588;SDS011;26297;49.450;6.640;2023-03-01T05:57:04;7.95;;;5.05;;
40588;SDS011;26297;49.450;6.640;2023-03-01T06:00:16;9.43;;;5.70;;
40588;SDS011;26297;49.450;6.640;2023-03-01T06:03:46;7.63;;;4.95;;
40588;SDS011;26297;49.450;6.640;2023-03-01T06:08:02;7.82;;;5.00;;
40588;SDS011;26297;49.450;6.640;2023-03-01T06:11:34;8.75;;;4.78;;
40588;SDS011;26297;49.450;6.640;2023-03-01T06:14:50;6.82;;;5.40;;
40588;SDS011;26297;49.450;6.640;2023-03-01T06:18:32;7.28;;;5.20;;
40588;SDS011;26297;49.450;6.640;2023-03-01T06:21:50;6.38;;;5.45;;
40588;SDS011;26297;49.450;6.640;2023-03-01T06:25:21;6.07;;;5.00;;
40588;SDS011;26297;49.450;6.640;2023-03-01T06:28:42;6.30;;;4.68;;
40588;SDS011;26297;49.450;6.640;2023-03-01T06:31:50;6.75;;;4.97;;
40588;SDS011;26297;49.450;6.640;2023-03-01T06:34:54;6.28;;;4.65;;
40588;SDS011;26297;49.450;6.640;2023-03-01T06:38:01;5.75;;;4.45;;
40588;SDS011;26297;49.450;6.640;2023-03-01T06:43:39;6.13;;;5.43;;
40588;SDS011;26297;49.450;6.640;2023-03-01T06:55:11;8.60;;;5.53;;
40588;SDS011;26297;49.450;6.640;2023-03-01T07:01:38;8.10;;;5.95;;
40588;SDS011;26297;49.450;6.640;2023-03-01T07:04:42;7.60;;;6.38;;
40588;SDS011;26297;49.450;6.640;2023-03-01T07:07:50;7.78;;;6.15;;
40588;SDS011;26297;49.450;6.640;2023-03-01T07:10:58;8.07;;;5.45;;
40588;SDS011;26297;49.450;6.640;2023-03-01T07:14:01;7.88;;;5.47;;
40588;SDS011;26297;49.450;6.640;2023-03-01T07:17:07;10.07;;;7.00;;
40588;SDS011;26297;49.450;6.640;2023-03-01T07:20:45;11.57;;;7.38;;
40588;SDS011;26297;49.450;6.640;2023-03-01T07:23:55;10.77;;;6.93;;
40588;SDS011;26297;49.450;6.640;2023-03-01T07:27:10;10.88;;;7.38;;
40588;SDS011;26297;49.450;6.640;2023-03-01T07:30:33;11.80;;;8.10;;
40588;SDS011;26297;49.450;6.640;2023-03-01T07:34:06;11.07;;;7.35;;
40588;SDS011;26297;49.450;6.640;2023-03-01T07:37:27;11.77;;;7.03;;
40588;SDS011;26297;49.450;6.640;2023-03-01T07:43:35;10.90;;;7.35;;
40588;SDS011;26297;49.450;6.640;2023-03-01T07:46:56;10.38;;;6.38;;
40588;SDS011;26297;49.450;6.640;2023-03-01T07:50:19;8.27;;;6.43;;
40588;SDS011;26297;49.450;6.640;2023-03-01T07:53:33;10.20;;;6.50;;
40588;SDS011;26297;49.450;6.640;2023-03-01T07:56:45;9.85;;;7.22;;
40588;SDS011;26297;49.450;6.640;2023-03-01T08:00:03;9.82;;;7.22;;
40588;SDS011;26297;49.450;6.640;2023-03-01T08:06:33;12.23;;;8.63;;
40588;SDS011;26297;49.450;6.640;2023-03-01T08:09:43;11.93;;;7.88;;
40588;SDS011;26297;49.450;6.640;2023-03-01T08:12:52;12.88;;;8.50;;
40588;SDS011;26297;49.450;6.640;2023-03-01T08:16:07;12.18;;;8.77;;
40588;SDS011;26297;49.450;6.640;2023-03-01T08:19:21;11.57;;;8.43;;
40588;SDS011;26297;49.450;6.640;2023-03-01T08:22:25;11.85;;;8.85;;
40588;SDS011;26297;49.450;6.640;2023-03-01T08:25:30;13.00;;;8.63;;
40588;SDS011;26297;49.450;6.640;2023-03-01T08:28:43;12.32;;;8.02;;
40588;SDS011;26297;49.450;6.640;2023-03-01T08:31:48;11.27;;;8.15;;
40588;SDS011;26297;49.450;6.640;2023-03-01T08:34:58;10.45;;;8.20;;
40588;SDS011;26297;49.450;6.640;2023-03-01T08:38:11;13.55;;;8.00;;
40588;SDS011;26297;49.450;6.640;2023-03-01T08:41:18;11.73;;;7.85;;
40588;SDS011;26297;49.450;6.640;2023-03-01T08:44:24;11.07;;;7.82;;
40588;SDS011;26297;49.450;6.640;2023-03-01T08:47:33;10.88;;;7.93;;
40588;SDS011;26297;49.450;6.640;2023-03-01T08:50:40;12.52;;;11.02;;
40588;SDS011;26297;49.450;6.640;2023-03-01T08:53:48;11.50;;;8.57;;
40588;SDS011;26297;49.450;6.640;2023-03-01T08:56:56;12.75;;;8.95;;
40588;SDS011;26297;49.450;6.640;2023-03-01T09:00:02;12.38;;;8.90;;
40588;SDS011;26297;49.450;6.640;2023-03-01T09:06:18;13.25;;;7.80;;
40588;SDS011;26297;49.450;6.640;2023-03-01T09:09:24;10.82;;;7.97;;
40588;SDS011;26297;49.450;6.640;2023-03-01T09:12:39;13.77;;;9.63;;
40588;SDS011;26297;49.450;6.640;2023-03-01T09:15:45;11.87;;;7.90;;
40588;SDS011;26297;49.450;6.640;2023-03-01T09:18:53;12.98;;;9.05;;
40588;SDS011;26297;49.450;6.640;2023-03-01T09:22:00;12.85;;;8.45;;
40588;SDS011;26297;49.450;6.640;2023-03-01T09:25:15;12.13;;;8.25;;
40588;SDS011;26297;49.450;6.640;2023-03-01T09:28:22;11.68;;;8.05;;
40588;SDS011;26297;49.450;6.640;2023-03-01T09:31:29;13.43;;;8.20;;
40588;SDS011;26297;49.450;6.640;2023-03-01T09:34:34;12.18;;;8.27;;
40588;SDS011;26297;49.450;6.640;2023-03-01T09:38:00;9.55;;;7.68;;
40588;SDS011;26297;49.450;6.640;2023-03-01T09:47:51;11.50;;;7.95;;
40588;SDS011;26297;49.450;6.640;2023-03-01T09:51:17;11.02;;;7.13;;
40588;SDS011;26297;49.450;6.640;2023-03-01T09:54:29;10.65;;;8.40;;
40588;SDS011;26297;49.450;6.640;2023-03-01T09:57:47;12.57;;;8.43;;
40588;SDS011;26297;49.450;6.640;2023-03-01T10:01:23;15.07;;;11.05;;
40588;SDS011;26297;49.450;6.640;2023-03-01T10:04:54;12.55;;;7.80;;
40588;SDS011;26297;49.450;6.640;2023-03-01T10:14:29;11.38;;;7.90;;
40588;SDS011;26297;49.450;6.640;2023-03-01T10:18:17;10.93;;;8.30;;
40588;SDS011;26297;49.450;6.640;2023-03-01T10:21:31;14.23;;;9.48;;
40588;SDS011;26297;49.450;6.640;2023-03-01T10:24:44;11.27;;;8.32;;
40588;SDS011;26297;49.450;6.640;2023-03-01T10:32:11;10.88;;;8.48;;
40588;SDS011;26297;49.450;6.640;2023-03-01T10:35:28;12.98;;;9.20;;
40588;SDS011;26297;49.450;6.640;2023-03-01T10:38:51;13.52;;;8.75;;
40588;SDS011;26297;49.450;6.640;2023-03-01T10:45:34;13.02;;;7.75;;
40588;SDS011;26297;49.450;6.640;2023-03-01T10:48:42;12.93;;;9.70;;
40588;SDS011;26297;49.450;6.640;2023-03-01T10:51:56;10.68;;;8.13;;
40588;SDS011;26297;49.450;6.640;2023-03-01T10:55:41;9.73;;;7.78;;
40588;SDS011;26297;49.450;6.640;2023-03-01T10:59:25;14.85;;;8.50;;
40588;SDS011;26297;49.450;6.640;2023-03-01T11:02:36;10.40;;;6.47;;
40588;SDS011;26297;49.450;6.640;2023-03-01T11:06:02;6.45;;;3.75;;
40588;SDS011;26297;49.450;6.640;2023-03-01T11:09:29;13.40;;;7.18;;
40588;SDS011;26297;49.450;6.640;2023-03-01T11:12:40;11.25;;;7.70;;
40588;SDS011;26297;49.450;6.640;2023-03-01T11:16:01;14.60;;;9.00;;
40588;SDS011;26297;49.450;6.640;2023-03-01T11:19:16;11.40;;;9.27;;
40588;SDS011;26297;49.450;6.640;2023-03-01T11:22:22;10.68;;;7.78;;
40588;SDS011;26297;49.450;6.640;2023-03-01T11:25:43;11.75;;;7.22;;
40588;SDS011;26297;49.450;6.640;2023-03-01T11:34:38;13.50;;;9.23;;
40588;SDS011;26297;49.450;6.640;2023-03-01T11:41:20;10.45;;;7.03;;
40588;SDS011;26297;49.450;6.640;2023-03-01T11:44:50;10.68;;;7.07;;
40588;SDS011;26297;49.450;6.640;2023-03-01T11:48:01;12.50;;;8.02;;
40588;SDS011;26297;49.450;6.640;2023-03-01T11:55:11;9.70;;;6.27;;
40588;SDS011;26297;49.450;6.640;2023-03-01T11:59:44;12.93;;;8.32;;
40588;SDS011;26297;49.450;6.640;2023-03-01T12:02:40;11.85;;;8.02;;
40588;SDS011;26297;49.450;6.640;2023-03-01T12:17:44;16.25;;;8.65;;
40588;SDS011;26297;49.450;6.640;2023-03-01T12:24:33;9.90;;;6.80;;
40588;SDS011;26297;49.450;6.640;2023-03-01T12:57:31;7.57;;;5.37;;
40588;SDS011;26297;49.450;6.640;2023-03-01T13:51:59;8.50;;;6.27;;
40588;SDS011;26297;49.450;6.640;2023-03-01T13:55:41;10.68;;;5.80;;
40588;SDS011;26297;49.450;6.640;2023-03-01T13:59:20;11.60;;;6.18;;
40588;SDS011;26297;49.450;6.640;2023-03-01T14:24:27;5.43;;;4.13;;
40588;SDS011;26297;49.450;6.640;2023-03-01T14:28:01;6.13;;;3.60;;
40588;SDS011;26297;49.450;6.640;2023-03-01T14:31:32;7.20;;;5.50;;
40588;SDS011;26297;49.450;6.640;2023-03-01T16:17:51;11.13;;;6.13;;
40588;SDS011;26297;49.450;6.640;2023-03-01T16:21:25;8.43;;;5.90;;
40588;SDS011;26297;49.450;6.640;2023-03-01T16:28:09;8.00;;;4.15;;
